Novato Boulevard CA US PGE current weather conditions

sailwx.info

Wind from 136 at 4 knots gusting 6

Air temperature 10.4° C
Dewpoint 9.8° C

Last reported at 2019-Dec-11 13:00 UTC.
Time now 2019-Dec-11 14:53 UTC

Location: N 38°08' W 122°42'.
View on Google Maps.

See reports from other nearby stations

  
Tides and Currents Weather Stations Pressure Air Temp Water Temp Dewpoint Dewpoint Depression Visibility Wind Speed Wind Dir Waves Ship Positions
date/time (UTC)wind fromknots sea level pressurealtimeterstation pressurevisibilityair tempwater tempwave heightnotes
2019-Dec-11 13:00 136 4 gusting 6 10.4
2019-Dec-11 12:50 133 5 gusting 7 10.4
2019-Dec-11 12:40 149 4 gusting 5 10.4
2019-Dec-11 12:30 142 5 gusting 8 10.4
2019-Dec-11 12:20 147 6 gusting 9 10.4
2019-Dec-11 12:00 152 6 gusting 9 10.5
2019-Dec-11 11:50 147 6 gusting 8 10.5
2019-Dec-11 11:40 142 6 gusting 9 10.5
2019-Dec-11 11:30 149 6 gusting 8 10.5
2019-Dec-11 11:20 146 7 gusting 9 10.5
2019-Dec-11 11:00 144 5 gusting 8 10.5
2019-Dec-11 10:50 141 6 gusting 9 10.5
2019-Dec-11 10:40 147 6 gusting 10 10.5
2019-Dec-11 10:30 146 6 gusting 9 10.5
2019-Dec-11 10:20 148 5 gusting 7 10.5
2019-Dec-11 10:00 146 6 gusting 9 10.4
2019-Dec-11 09:50 141 7 gusting 12 10.4
2019-Dec-11 09:40 139 10 gusting 13 10.3
2019-Dec-11 09:30 137 10 gusting 15 10.3
2019-Dec-11 09:20 136 9 gusting 13 10.2
2019-Dec-11 09:00 139 8 gusting 11 10.3
2019-Dec-11 08:50 141 9 gusting 14 10.3
2019-Dec-11 08:40 145 9 gusting 14 10.2
2019-Dec-11 08:30 141 10 gusting 15 10.2
2019-Dec-11 08:20 146 9 gusting 14 10.2
2019-Dec-11 08:00 150 9 gusting 13 10.3
2019-Dec-11 07:50 141 10 gusting 14 10.3
2019-Dec-11 07:40 141 9 gusting 13 10.3
2019-Dec-11 07:30 139 7 gusting 10 10.3
2019-Dec-11 07:20 141 6 gusting 9 10.2
2019-Dec-11 07:00 143 4 gusting 8 10.2
2019-Dec-11 06:50 146 4 gusting 6 10.2
2019-Dec-11 06:40 144 3 gusting 5 10.1
2019-Dec-11 06:30 133 3 gusting 4 10.2
2019-Dec-11 06:20 133 2 gusting 2 10.2
2019-Dec-11 06:00 139 2 gusting 2 10.2
2019-Dec-11 05:50 153 1 gusting 2 10.2
2019-Dec-11 05:40 138 1 gusting 2 10.2
2019-Dec-11 05:30 145 1 gusting 2 10.3
2019-Dec-11 05:20 138 2 gusting 3 10.3
2019-Dec-11 05:00 154 4 gusting 7 10.2
2019-Dec-11 04:50 147 5 gusting 8 10.3
2019-Dec-11 04:40 155 4 gusting 8 10.2
2019-Dec-11 04:30 160 6 gusting 9 10.2
2019-Dec-11 04:20 157 6 gusting 10 10.2
2019-Dec-11 04:00 142 4 gusting 7 10.2
2019-Dec-11 03:50 130 5 gusting 8 10.1
2019-Dec-11 03:40 128 6 gusting 8 10.2
2019-Dec-11 03:30 142 6 gusting 9 10.2
2019-Dec-11 03:20 150 5 gusting 7 10.2
2019-Dec-11 03:00 151 3 gusting 4 10.4
2019-Dec-11 02:50 103 2 gusting 4 10.4
2019-Dec-11 02:40 110 3 gusting 5 10.4
2019-Dec-11 02:30 138 2 gusting 4 10.5
2019-Dec-11 02:20 108 0 gusting 1 10.5
2019-Dec-11 02:10 148 0 gusting 0 10.7
2019-Dec-11 02:00 10.8
2019-Dec-11 01:50 233 0 gusting 1 10.8
2019-Dec-11 01:00 159 4 gusting 7 11.1
2019-Dec-11 00:50 140 5 gusting 8 11.1
2019-Dec-11 00:40 133 5 gusting 8 11.2
2019-Dec-11 00:30 138 5 gusting 8 11.3
2019-Dec-11 00:20 134 6 gusting 9 11.3
2019-Dec-11 00:00 129 4 gusting 7 11.3
2019-Dec-10 23:50 126 8 gusting 13 11.2
2019-Dec-10 23:40 123 7 gusting 11 11.3
2019-Dec-10 23:30 126 6 gusting 9 11.3
2019-Dec-10 23:20 133 5 gusting 7 11.4
2019-Dec-10 23:00 129 4 gusting 6 11.6
2019-Dec-10 22:50 139 5 gusting 7 11.5
2019-Dec-10 22:40 135 5 gusting 6 11.4
2019-Dec-10 22:30 137 5 gusting 6 11.4
2019-Dec-10 22:20 131 5 gusting 6 11.4
2019-Dec-10 22:00 139 4 gusting 7 11.4
2019-Dec-10 21:50 131 6 gusting 8 11.3
2019-Dec-10 21:40 131 5 gusting 7 11.3
2019-Dec-10 21:30 133 4 gusting 7 11.2
2019-Dec-10 21:20 139 5 gusting 7 11.2
2019-Dec-10 21:00 141 6 gusting 9 11.1
2019-Dec-10 20:50 124 5 gusting 10 11.1
2019-Dec-10 20:40 125 6 gusting 9 11.0
2019-Dec-10 20:30 133 6 gusting 9 11.0
2019-Dec-10 20:20 131 4 gusting 7 11.0
2019-Dec-10 19:00 139 3 gusting 6 10.1
2019-Dec-10 18:50 134 5 gusting 7 9.9
2019-Dec-10 18:40 137 4 gusting 10 9.8
2019-Dec-10 18:30 131 6 gusting 9 9.8
2019-Dec-10 18:20 140 5 gusting 9 9.7
2019-Dec-10 18:00 143 6 gusting 9 9.8
2019-Dec-10 17:50 132 6 gusting 10 9.8
2019-Dec-10 17:40 136 7 gusting 11 9.6
2019-Dec-10 17:30 136 6 gusting 9 9.5
2019-Dec-10 17:20 136 6 gusting 10 9.4
2019-Dec-10 17:00 118 4 gusting 7 9.0
2019-Dec-10 16:50 134 5 gusting 8 8.8
2019-Dec-10 16:40 132 4 gusting 7 8.7
2019-Dec-10 16:30 117 4 gusting 6 8.7
2019-Dec-10 16:20 109 4 gusting 6 8.7
2019-Dec-10 16:00 109 4 gusting 6 8.9
2019-Dec-10 15:50 113 3 gusting 5 8.8
2019-Dec-10 15:40 127 2 gusting 4 8.8
2019-Dec-10 15:30 171 1 gusting 2 8.8
2019-Dec-10 15:20 178 2 gusting 4 8.8
2019-Dec-10 15:00 164 4 gusting 8 8.8
2019-Dec-10 14:50 135 5 gusting 7 8.8
2019-Dec-10 14:40 152 3 gusting 9 8.8
2019-Dec-10 14:30 134 5 gusting 7 8.7
2019-Dec-10 14:20 134 3 gusting 6 8.7
2019-Dec-10 14:00 119 4 gusting 8 8.8
2019-Dec-10 13:50 109 3 gusting 5 8.8
2019-Dec-10 13:40 125 1 gusting 3 8.9
2019-Dec-10 13:30 089 0 gusting 2 8.9
2019-Dec-10 13:20 164 0 gusting 3 8.9
2019-Dec-10 12:00 048 3 gusting 4 9.3
2019-Dec-10 11:50 046 3 gusting 4 9.3
2019-Dec-10 11:40 085 1 gusting 3 9.3
2019-Dec-10 11:30 021 1 gusting 2 9.2
2019-Dec-10 11:20 003 2 gusting 3 9.1
2019-Dec-10 11:00 303 2 gusting 4 8.9
2019-Dec-10 10:50 269 0 gusting 2 8.7
2019-Dec-10 10:40 343 0 gusting 1 8.7
2019-Dec-10 10:30 276 1 gusting 2 8.6
2019-Dec-10 10:20 304 1 gusting 1 8.5
2019-Dec-10 10:00 336 1 gusting 2 8.6
2019-Dec-10 09:50 294 0 gusting 2 8.5
2019-Dec-10 09:40 137 0 gusting 1 8.6
2019-Dec-10 09:30 263 1 gusting 2 8.8
2019-Dec-10 09:20 256 1 gusting 2 8.9
2019-Dec-10 09:00 191 2 gusting 3 9.1
2019-Dec-10 08:50 176 2 gusting 3 9.1
2019-Dec-10 08:40 201 1 gusting 2 9.2
2019-Dec-10 08:30 166 3 gusting 6 9.2
2019-Dec-10 08:20 163 1 gusting 4 9.2
2019-Dec-10 08:00 203 1 gusting 3 9.2
2019-Dec-10 07:50 178 2 gusting 5 9.2
2019-Dec-10 07:40 131 4 gusting 6 9.3
2019-Dec-10 07:30 105 2 gusting 4 9.3
2019-Dec-10 07:20 118 1 gusting 3 9.3
2019-Dec-10 07:00 096 3 gusting 5 9.4
2019-Dec-10 06:50 103 2 gusting 4 9.6
2019-Dec-10 06:40 130 2 gusting 4 9.6
2019-Dec-10 06:30 125 2 gusting 5 9.7
2019-Dec-10 06:20 093 1 gusting 5 9.7
2019-Dec-10 06:00 016 2 gusting 4 9.9
2019-Dec-10 05:50 030 0 gusting 2 10.0
2019-Dec-10 05:40 033 1 gusting 4 10.0
2019-Dec-10 05:30 137 0 gusting 3 10.0
2019-Dec-10 05:20 009 3 gusting 5 10.1
2019-Dec-10 05:00 346 2 gusting 4 10.1
2019-Dec-10 04:50 319 0 gusting 1 10.1
2019-Dec-10 04:40 317 1 gusting 2 10.1
2019-Dec-10 04:30 326 1 gusting 2 10.1
2019-Dec-10 04:20 320 1 gusting 2 10.1
2019-Dec-10 04:00 325 2 gusting 4 10.2
2019-Dec-10 03:50 309 2 gusting 4 10.2
2019-Dec-10 03:40 312 3 gusting 4 10.2
2019-Dec-10 03:30 287 2 gusting 4 10.2
2019-Dec-10 03:20 303 2 gusting 3 10.3
2019-Dec-10 03:00 308 2 gusting 5 10.4
2019-Dec-10 02:50 327 2 gusting 4 10.5
2019-Dec-10 02:40 323 3 gusting 5 10.5
2019-Dec-10 02:30 300 2 gusting 4 10.5
2019-Dec-10 02:20 306 2 gusting 3 10.6
2019-Dec-10 02:10 339 3 gusting 5 10.7
2019-Dec-10 02:00 320 3 gusting 5 10.7
2019-Dec-10 01:50 316 3 gusting 4 10.7
2019-Dec-10 01:00 312 3 gusting 4 11.1
2019-Dec-10 00:50 297 3 gusting 5 11.3
2019-Dec-10 00:40 283 2 gusting 5 11.4
2019-Dec-10 00:30 303 3 gusting 5 11.4
2019-Dec-10 00:20 298 3 gusting 4 11.5
2019-Dec-10 00:00 292 3 gusting 5 11.8
2019-Dec-09 23:50 314 2 gusting 4 11.8
2019-Dec-09 23:40 301 3 gusting 4 11.9
2019-Dec-09 23:30 318 2 gusting 4 11.9
2019-Dec-09 23:20 326 3 gusting 4 11.8
2019-Dec-09 23:00 309 2 gusting 4 11.9
2019-Dec-09 22:50 296 2 gusting 3 11.9
2019-Dec-09 22:40 316 1 gusting 3 11.9
2019-Dec-09 22:30 327 1 gusting 2 11.8
2019-Dec-09 22:20 253 1 gusting 5 11.7
2019-Dec-09 22:00 306 2 gusting 4 11.6
2019-Dec-09 21:50 297 2 gusting 4 11.4
2019-Dec-09 21:40 318 2 gusting 3 11.3
2019-Dec-09 21:30 302 2 gusting 3 11.3
2019-Dec-09 21:20 322 2 gusting 3 11.1
2019-Dec-09 20:00 324 3 gusting 4 10.5
2019-Dec-09 19:50 324 3 gusting 5 10.3
2019-Dec-09 19:40 299 3 gusting 6 10.2
2019-Dec-09 19:30 297 3 gusting 7 10.0
2019-Dec-09 19:20 300 2 gusting 4 10.0
2019-Dec-09 19:00 294 1 gusting 2 9.8
2019-Dec-09 18:50 309 1 gusting 3 9.7
2019-Dec-09 18:40 068 0 gusting 2 9.6
2019-Dec-09 18:30 090 1 gusting 4 9.4
2019-Dec-09 18:20 063 1 gusting 2 9.2
2019-Dec-09 18:00 322 0 gusting 1 8.7
2019-Dec-09 17:50 318 1 gusting 2 8.4
2019-Dec-09 17:40 329 0 gusting 1 8.1
2019-Dec-09 17:30 319 0 gusting 1 7.8
2019-Dec-09 17:20 305 0 gusting 1 7.4
2019-Dec-09 17:00 344 0 gusting 1 6.7
2019-Dec-09 16:50 008 1 gusting 2 6.3
2019-Dec-09 16:40 003 0 gusting 1 6.1
2019-Dec-09 16:30 019 0 gusting 0 5.7
2019-Dec-09 16:20 011 0 gusting 0 5.4
2019-Dec-09 16:00 5.0
2019-Dec-09 15:50 4.8
2019-Dec-09 15:40 4.7
2019-Dec-09 15:30 4.7
2019-Dec-09 15:20 313 0 gusting 0 4.7
2019-Dec-09 15:00 291 0 gusting 0 4.7
2019-Dec-09 14:50 331 0 gusting 1 4.7
2019-Dec-09 14:40 152 0 gusting 0 4.7
2019-Dec-09 14:30 4.7
2019-Dec-09 14:20 329 0 gusting 0 4.7
2019-Dec-09 14:00 4.7